sensor_id;sensor_type;location;lat;lon;timestamp;temperature;humidity
851;DHT22;412;51.400;7.480;2023-04-01T00:02:07;12.30;99.90
851;DHT22;412;51.400;7.480;2023-04-01T00:04:33;12.30;99.90
851;DHT22;412;51.400;7.480;2023-04-01T00:06:59;12.30;99.90
851;DHT22;412;51.400;7.480;2023-04-01T00:09:25;12.20;99.90
851;DHT22;412;51.400;7.480;2023-04-01T00:11:51;12.20;99.90
851;DHT22;412;51.400;7.480;2023-04-01T00:14:17;12.20;99.90
851;DHT22;412;51.400;7.480;2023-04-01T00:16:43;12.20;99.90
851;DHT22;412;51.400;7.480;2023-04-01T00:19:09;12.10;99.90
851;DHT22;412;51.400;7.480;2023-04-01T00:21:34;12.10;99.90
851;DHT22;412;51.400;7.480;2023-04-01T00:24:02;12.10;99.90
851;DHT22;412;51.400;7.480;2023-04-01T00:26:28;12.10;99.90
851;DHT22;412;51.400;7.480;2023-04-01T00:28:54;12.10;99.90
851;DHT22;412;51.400;7.480;2023-04-01T00:31:20;12.10;99.90
851;DHT22;412;51.400;7.480;2023-04-01T00:33:46;12.10;99.90
851;DHT22;412;51.400;7.480;2023-04-01T00:36:19;12.10;99.90
851;DHT22;412;51.400;7.480;2023-04-01T00:38:47;11.90;99.90
851;DHT22;412;51.400;7.480;2023-04-01T00:41:13;11.80;99.90
851;DHT22;412;51.400;7.480;2023-04-01T00:43:46;11.90;99.90
851;DHT22;412;51.400;7.480;2023-04-01T00:46:12;11.80;99.90
851;DHT22;412;51.400;7.480;2023-04-01T00:48:41;11.80;99.90
851;DHT22;412;51.400;7.480;2023-04-01T00:51:31;11.90;99.90
851;DHT22;412;51.400;7.480;2023-04-01T00:53:58;12.00;99.90
851;DHT22;412;51.400;7.480;2023-04-01T00:56:29;12.00;99.90
851;DHT22;412;51.400;7.480;2023-04-01T00:59:02;12.00;99.90
851;DHT22;412;51.400;7.480;2023-04-01T01:01:29;12.10;99.90
851;DHT22;412;51.400;7.480;2023-04-01T01:03:56;12.10;99.90
851;DHT22;412;51.400;7.480;2023-04-01T01:06:48;12.20;99.90
851;DHT22;412;51.400;7.480;2023-04-01T01:09:44;12.10;99.90
851;DHT22;412;51.400;7.480;2023-04-01T01:18:19;11.90;99.90
851;DHT22;412;51.400;7.480;2023-04-01T01:26:29;11.80;99.90
851;DHT22;412;51.400;7.480;2023-04-01T01:29:24;11.70;99.90
851;DHT22;412;51.400;7.480;2023-04-01T01:37:22;11.80;99.90
851;DHT22;412;51.400;7.480;2023-04-01T01:39:54;11.90;99.90
851;DHT22;412;51.400;7.480;2023-04-01T01:42:23;12.00;99.90
851;DHT22;412;51.400;7.480;2023-04-01T01:44:51;11.90;99.90
851;DHT22;412;51.400;7.480;2023-04-01T01:47:19;11.70;99.90
851;DHT22;412;51.400;7.480;2023-04-01T01:49:45;11.90;99.90
851;DHT22;412;51.400;7.480;2023-04-01T01:52:12;12.00;99.90
851;DHT22;412;51.400;7.480;2023-04-01T01:54:55;12.00;99.90
851;DHT22;412;51.400;7.480;2023-04-01T01:57:36;11.90;99.90
851;DHT22;412;51.400;7.480;2023-04-01T02:00:08;11.90;99.90
851;DHT22;412;51.400;7.480;2023-04-01T02:02:40;11.90;99.90
851;DHT22;412;51.400;7.480;2023-04-01T02:05:10;11.90;99.90
851;DHT22;412;51.400;7.480;2023-04-01T02:07:38;12.00;99.90
851;DHT22;412;51.400;7.480;2023-04-01T02:10:05;12.00;99.90
851;DHT22;412;51.400;7.480;2023-04-01T02:12:33;12.00;99.90
851;DHT22;412;51.400;7.480;2023-04-01T02:15:06;11.90;99.90
851;DHT22;412;51.400;7.480;2023-04-01T02:17:34;11.90;99.90
851;DHT22;412;51.400;7.480;2023-04-01T02:20:10;11.90;99.90
851;DHT22;412;51.400;7.480;2023-04-01T02:22:42;11.90;99.90
851;DHT22;412;51.400;7.480;2023-04-01T02:25:13;11.90;99.90
851;DHT22;412;51.400;7.480;2023-04-01T02:27:43;11.90;99.90
851;DHT22;412;51.400;7.480;2023-04-01T02:30:11;11.80;99.90
851;DHT22;412;51.400;7.480;2023-04-01T02:32:38;11.80;99.90
851;DHT22;412;51.400;7.480;2023-04-01T02:35:09;11.90;99.90
851;DHT22;412;51.400;7.480;2023-04-01T02:37:37;11.90;99.90
851;DHT22;412;51.400;7.480;2023-04-01T02:40:06;11.90;99.90
851;DHT22;412;51.400;7.480;2023-04-01T02:42:33;11.90;99.90
851;DHT22;412;51.400;7.480;2023-04-01T02:44:59;11.80;99.90
851;DHT22;412;51.400;7.480;2023-04-01T02:47:25;11.80;99.90
851;DHT22;412;51.400;7.480;2023-04-01T02:49:50;11.80;99.90
851;DHT22;412;51.400;7.480;2023-04-01T02:52:16;11.70;99.90
851;DHT22;412;51.400;7.480;2023-04-01T02:54:42;11.80;99.90
851;DHT22;412;51.400;7.480;2023-04-01T02:57:08;11.80;99.90
851;DHT22;412;51.400;7.480;2023-04-01T02:59:33;11.90;99.90
851;DHT22;412;51.400;7.480;2023-04-01T03:01:59;12.00;99.90
851;DHT22;412;51.400;7.480;2023-04-01T03:04:25;11.80;99.90
851;DHT22;412;51.400;7.480;2023-04-01T03:06:51;11.70;99.90
851;DHT22;412;51.400;7.480;2023-04-01T03:09:17;11.70;99.90
851;DHT22;412;51.400;7.480;2023-04-01T03:11:43;11.80;99.90
851;DHT22;412;51.400;7.480;2023-04-01T03:14:09;11.80;99.90
851;DHT22;412;51.400;7.480;2023-04-01T03:16:34;11.70;99.90
851;DHT22;412;51.400;7.480;2023-04-01T03:19:00;11.70;99.90
851;DHT22;412;51.400;7.480;2023-04-01T03:21:27;11.70;99.90
851;DHT22;412;51.400;7.480;2023-04-01T03:23:53;11.80;99.90
851;DHT22;412;51.400;7.480;2023-04-01T03:26:19;11.80;99.90
851;DHT22;412;51.400;7.480;2023-04-01T03:28:45;11.80;99.90
851;DHT22;412;51.400;7.480;2023-04-01T03:31:11;11.70;99.90
851;DHT22;412;51.400;7.480;2023-04-01T03:33:37;11.70;99.90
851;DHT22;412;51.400;7.480;2023-04-01T03:36:03;11.70;99.90
851;DHT22;412;51.400;7.480;2023-04-01T03:38:35;11.70;99.90
851;DHT22;412;51.400;7.480;2023-04-01T03:41:01;11.70;99.90
851;DHT22;412;51.400;7.480;2023-04-01T03:43:27;11.80;99.90
851;DHT22;412;51.400;7.480;2023-04-01T03:45:53;11.80;99.90
851;DHT22;412;51.400;7.480;2023-04-01T03:48:20;11.70;99.90
851;DHT22;412;51.400;7.480;2023-04-01T03:50:46;11.70;99.90
851;DHT22;412;51.400;7.480;2023-04-01T03:53:12;11.70;99.90
851;DHT22;412;51.400;7.480;2023-04-01T03:55:39;11.70;99.90
851;DHT22;412;51.400;7.480;2023-04-01T03:58:06;11.70;99.90
851;DHT22;412;51.400;7.480;2023-04-01T04:00:32;11.70;99.90
851;DHT22;412;51.400;7.480;2023-04-01T04:03:00;11.70;99.90
851;DHT22;412;51.400;7.480;2023-04-01T04:05:27;11.60;99.90
851;DHT22;412;51.400;7.480;2023-04-01T04:07:52;11.60;99.90
851;DHT22;412;51.400;7.480;2023-04-01T04:10:19;11.70;99.90
851;DHT22;412;51.400;7.480;2023-04-01T04:12:45;11.70;99.90
851;DHT22;412;51.400;7.480;2023-04-01T04:15:11;11.60;99.90
851;DHT22;412;51.400;7.480;2023-04-01T04:17:37;11.50;99.90
851;DHT22;412;51.400;7.480;2023-04-01T04:20:03;11.60;99.90
851;DHT22;412;51.400;7.480;2023-04-01T04:22:29;11.60;99.90
851;DHT22;412;51.400;7.480;2023-04-01T04:24:55;11.50;99.90
851;DHT22;412;51.400;7.480;2023-04-01T04:27:21;11.50;99.90
851;DHT22;412;51.400;7.480;2023-04-01T04:29:46;11.50;99.90
851;DHT22;412;51.400;7.480;2023-04-01T04:32:12;11.60;99.90
851;DHT22;412;51.400;7.480;2023-04-01T04:34:38;11.70;99.90
851;DHT22;412;51.400;7.480;2023-04-01T04:37:04;11.60;99.90
851;DHT22;412;51.400;7.480;2023-04-01T04:39:29;11.70;99.90
851;DHT22;412;51.400;7.480;2023-04-01T04:41:55;11.70;99.90
851;DHT22;412;51.400;7.480;2023-04-01T04:44:22;11.70;99.90
851;DHT22;412;51.400;7.480;2023-04-01T04:46:48;11.70;99.90
851;DHT22;412;51.400;7.480;2023-04-01T04:49:13;11.70;99.90
851;DHT22;412;51.400;7.480;2023-04-01T04:51:39;11.60;99.90
851;DHT22;412;51.400;7.480;2023-04-01T04:54:06;11.70;99.90
851;DHT22;412;51.400;7.480;2023-04-01T04:56:33;11.70;99.90
851;DHT22;412;51.400;7.480;2023-04-01T04:58:59;11.70;99.90
851;DHT22;412;51.400;7.480;2023-04-01T05:01:25;11.80;99.90
851;DHT22;412;51.400;7.480;2023-04-01T05:03:50;11.70;99.90
851;DHT22;412;51.400;7.480;2023-04-01T05:06:17;11.80;99.90
851;DHT22;412;51.400;7.480;2023-04-01T05:08:44;11.90;99.90
851;DHT22;412;51.400;7.480;2023-04-01T05:11:15;11.80;99.90
851;DHT22;412;51.400;7.480;2023-04-01T05:13:42;11.80;99.90
851;DHT22;412;51.400;7.480;2023-04-01T05:16:14;11.90;99.90
851;DHT22;412;51.400;7.480;2023-04-01T05:18:40;11.90;99.90
851;DHT22;412;51.400;7.480;2023-04-01T05:21:08;12.00;99.90
851;DHT22;412;51.400;7.480;2023-04-01T05:23:34;12.00;99.90
851;DHT22;412;51.400;7.480;2023-04-01T05:26:08;12.10;99.90
851;DHT22;412;51.400;7.480;2023-04-01T05:28:35;12.10;99.90
851;DHT22;412;51.400;7.480;2023-04-01T05:31:04;12.10;99.90
851;DHT22;412;51.400;7.480;2023-04-01T05:33:31;12.10;99.90
851;DHT22;412;51.400;7.480;2023-04-01T05:36:14;12.10;99.90
851;DHT22;412;51.400;7.480;2023-04-01T05:38:40;12.10;99.90
851;DHT22;412;51.400;7.480;2023-04-01T05:41:07;12.10;99.90
851;DHT22;412;51.400;7.480;2023-04-01T05:43:36;12.10;99.90
851;DHT22;412;51.400;7.480;2023-04-01T05:46:02;12.10;99.90
851;DHT22;412;51.400;7.480;2023-04-01T05:48:28;12.10;99.90
851;DHT22;412;51.400;7.480;2023-04-01T05:50:53;12.10;99.90
851;DHT22;412;51.400;7.480;2023-04-01T05:53:19;12.10;99.90
851;DHT22;412;51.400;7.480;2023-04-01T05:55:45;12.10;99.90
851;DHT22;412;51.400;7.480;2023-04-01T05:58:11;12.10;99.90
851;DHT22;412;51.400;7.480;2023-04-01T06:00:37;12.10;99.90
851;DHT22;412;51.400;7.480;2023-04-01T06:03:02;12.20;99.90
851;DHT22;412;51.400;7.480;2023-04-01T06:05:30;12.20;99.90
851;DHT22;412;51.400;7.480;2023-04-01T06:08:05;12.20;99.90
851;DHT22;412;51.400;7.480;2023-04-01T06:16:01;12.20;99.90
851;DHT22;412;51.400;7.480;2023-04-01T06:18:41;12.20;99.90
851;DHT22;412;51.400;7.480;2023-04-01T06:21:22;12.30;99.90
851;DHT22;412;51.400;7.480;2023-04-01T06:41:31;12.30;99.90
851;DHT22;412;51.400;7.480;2023-04-01T06:44:23;12.30;99.90
851;DHT22;412;51.400;7.480;2023-04-01T06:46:58;12.30;99.90
851;DHT22;412;51.400;7.480;2023-04-01T06:49:44;12.30;99.90
851;DHT22;412;51.400;7.480;2023-04-01T06:57:56;12.20;99.90
851;DHT22;412;51.400;7.480;2023-04-01T07:00:36;12.20;99.90
851;DHT22;412;51.400;7.480;2023-04-01T07:03:22;12.30;99.90
851;DHT22;412;51.400;7.480;2023-04-01T07:05:49;12.40;99.90
851;DHT22;412;51.400;7.480;2023-04-01T07:08:24;12.40;99.90
851;DHT22;412;51.400;7.480;2023-04-01T07:10:58;12.50;99.90
851;DHT22;412;51.400;7.480;2023-04-01T07:19:08;13.30;99.90
851;DHT22;412;51.400;7.480;2023-04-01T07:21:44;13.60;99.90
851;DHT22;412;51.400;7.480;2023-04-01T07:24:34;13.90;99.90
851;DHT22;412;51.400;7.480;2023-04-01T07:27:02;14.20;99.90
851;DHT22;412;51.400;7.480;2023-04-01T07:29:28;14.30;99.90
851;DHT22;412;51.400;7.480;2023-04-01T07:35:00;14.60;99.90
851;DHT22;412;51.400;7.480;2023-04-01T07:37:52;14.70;99.90
851;DHT22;412;51.400;7.480;2023-04-01T07:40:45;14.80;99.90
851;DHT22;412;51.400;7.480;2023-04-01T07:49:27;15.10;99.90
851;DHT22;412;51.400;7.480;2023-04-01T07:52:17;15.30;99.90
851;DHT22;412;51.400;7.480;2023-04-01T07:55:14;15.50;99.90
851;DHT22;412;51.400;7.480;2023-04-01T08:00:15;15.50;99.90
851;DHT22;412;51.400;7.480;2023-04-01T08:08:16;15.30;99.90
851;DHT22;412;51.400;7.480;2023-04-01T08:10:52;15.40;99.90
851;DHT22;412;51.400;7.480;2023-04-01T08:14:04;15.50;99.90
851;DHT22;412;51.400;7.480;2023-04-01T08:16:28;15.60;99.90
851;DHT22;412;51.400;7.480;2023-04-01T08:19:21;15.70;99.90
851;DHT22;412;51.400;7.480;2023-04-01T08:21:56;15.70;99.90
851;DHT22;412;51.400;7.480;2023-04-01T08:24:44;15.80;99.90
851;DHT22;412;51.400;7.480;2023-04-01T08:29:48;15.90;99.90
851;DHT22;412;51.400;7.480;2023-04-01T08:32:16;16.00;99.90
851;DHT22;412;51.400;7.480;2023-04-01T08:34:50;16.00;99.90
851;DHT22;412;51.400;7.480;2023-04-01T08:37:26;16.00;99.90
851;DHT22;412;51.400;7.480;2023-04-01T08:40:00;16.00;99.90
851;DHT22;412;51.400;7.480;2023-04-01T08:45:21;16.00;99.90
851;DHT22;412;51.400;7.480;2023-04-01T08:56:19;16.00;99.90
851;DHT22;412;51.400;7.480;2023-04-01T09:04:22;16.00;99.90
851;DHT22;412;51.400;7.480;2023-04-01T09:07:08;15.90;99.90
851;DHT22;412;51.400;7.480;2023-04-01T09:09:40;16.00;99.90
851;DHT22;412;51.400;7.480;2023-04-01T09:21:31;16.10;99.90
851;DHT22;412;51.400;7.480;2023-04-01T09:23:58;16.10;99.90
851;DHT22;412;51.400;7.480;2023-04-01T09:29:25;16.20;99.90
851;DHT22;412;51.400;7.480;2023-04-01T09:32:25;16.20;99.90
851;DHT22;412;51.400;7.480;2023-04-01T09:40:47;16.00;99.90
851;DHT22;412;51.400;7.480;2023-04-01T09:46:18;15.40;99.90
851;DHT22;412;51.400;7.480;2023-04-01T09:54:40;14.60;99.90
851;DHT22;412;51.400;7.480;2023-04-01T10:05:54;13.90;99.90
851;DHT22;412;51.400;7.480;2023-04-01T10:17:46;13.40;99.90
851;DHT22;412;51.400;7.480;2023-04-01T10:20:38;13.40;99.90
851;DHT22;412;51.400;7.480;2023-04-01T10:29:36;13.30;99.90
851;DHT22;412;51.400;7.480;2023-04-01T10:35:10;13.30;99.90
851;DHT22;412;51.400;7.480;2023-04-01T10:48:55;13.30;99.90
851;DHT22;412;51.400;7.480;2023-04-01T11:20:40;13.40;99.90
851;DHT22;412;51.400;7.480;2023-04-01T11:29:18;13.40;99.90
851;DHT22;412;51.400;7.480;2023-04-01T12:02:50;13.40;99.90
851;DHT22;412;51.400;7.480;2023-04-01T12:10:45;13.30;99.90
851;DHT22;412;51.400;7.480;2023-04-01T12:21:42;13.20;99.90
851;DHT22;412;51.400;7.480;2023-04-01T12:39:07;13.40;99.90
851;DHT22;412;51.400;7.480;2023-04-01T12:53:22;13.40;99.90
851;DHT22;412;51.400;7.480;2023-04-01T12:55:54;13.40;99.90
851;DHT22;412;51.400;7.480;2023-04-01T13:17:10;13.40;99.90
851;DHT22;412;51.400;7.480;2023-04-01T13:19:54;13.40;99.90
851;DHT22;412;51.400;7.480;2023-04-01T13:22:49;13.30;99.90
851;DHT22;412;51.400;7.480;2023-04-01T13:28:09;13.40;99.90
851;DHT22;412;51.400;7.480;2023-04-01T13:31:01;13.40;99.90
851;DHT22;412;51.400;7.480;2023-04-01T13:33:44;13.30;99.90
851;DHT22;412;51.400;7.480;2023-04-01T13:42:25;13.20;99.90
851;DHT22;412;51.400;7.480;2023-04-01T13:45:02;13.20;99.90
851;DHT22;412;51.400;7.480;2023-04-01T13:50:54;13.20;99.90
851;DHT22;412;51.400;7.480;2023-04-01T14:10:25;13.40;99.90
851;DHT22;412;51.400;7.480;2023-04-01T14:13:31;13.50;99.90
851;DHT22;412;51.400;7.480;2023-04-01T14:16:23;13.50;99.90
851;DHT22;412;51.400;7.480;2023-04-01T14:19:08;13.40;99.90
851;DHT22;412;51.400;7.480;2023-04-01T14:41:48;13.30;99.90
851;DHT22;412;51.400;7.480;2023-04-01T14:47:50;13.30;99.90
851;DHT22;412;51.400;7.480;2023-04-01T14:50:23;13.30;99.90
851;DHT22;412;51.400;7.480;2023-04-01T14:55:59;13.30;99.90
851;DHT22;412;51.400;7.480;2023-04-01T14:58:43;13.20;99.90
851;DHT22;412;51.400;7.480;2023-04-01T15:13:07;13.30;99.90
851;DHT22;412;51.400;7.480;2023-04-01T15:37:33;13.30;99.90
851;DHT22;412;51.400;7.480;2023-04-01T15:45:36;13.00;99.90
851;DHT22;412;51.400;7.480;2023-04-01T15:50:50;13.00;99.90
851;DHT22;412;51.400;7.480;2023-04-01T15:53:37;13.00;99.90
851;DHT22;412;51.400;7.480;2023-04-01T15:56:28;13.00;99.90
851;DHT22;412;51.400;7.480;2023-04-01T15:59:01;13.00;99.90
851;DHT22;412;51.400;7.480;2023-04-01T16:01:53;13.00;99.90
851;DHT22;412;51.400;7.480;2023-04-01T16:10:13;13.00;99.90
851;DHT22;412;51.400;7.480;2023-04-01T16:21:37;13.00;99.90
851;DHT22;412;51.400;7.480;2023-04-01T16:24:20;13.00;99.90
851;DHT22;412;51.400;7.480;2023-04-01T16:26:55;13.00;99.90
851;DHT22;412;51.400;7.480;2023-04-01T16:29:45;13.00;99.90
851;DHT22;412;51.400;7.480;2023-04-01T16:32:21;13.10;99.90
851;DHT22;412;51.400;7.480;2023-04-01T16:37:21;13.00;99.90
851;DHT22;412;51.400;7.480;2023-04-01T16:40:20;13.00;99.90
851;DHT22;412;51.400;7.480;2023-04-01T16:45:37;13.00;99.90
851;DHT22;412;51.400;7.480;2023-04-01T16:50:59;13.00;99.90
851;DHT22;412;51.400;7.480;2023-04-01T16:53:42;13.00;99.90
851;DHT22;412;51.400;7.480;2023-04-01T16:56:27;13.00;99.90
851;DHT22;412;51.400;7.480;2023-04-01T17:01:38;13.00;99.90
851;DHT22;412;51.400;7.480;2023-04-01T17:07:06;13.10;99.90
851;DHT22;412;51.400;7.480;2023-04-01T17:20:12;13.00;99.90
851;DHT22;412;51.400;7.480;2023-04-01T17:23:10;13.00;99.90
851;DHT22;412;51.400;7.480;2023-04-01T17:25:56;13.00;99.90
851;DHT22;412;51.400;7.480;2023-04-01T17:31:12;12.90;99.90
851;DHT22;412;51.400;7.480;2023-04-01T17:36:25;13.00;99.90
851;DHT22;412;51.400;7.480;2023-04-01T17:42:08;12.90;99.90
851;DHT22;412;51.400;7.480;2023-04-01T17:44:45;12.90;99.90
851;DHT22;412;51.400;7.480;2023-04-01T17:47:36;12.90;99.90
851;DHT22;412;51.400;7.480;2023-04-01T17:58:29;12.90;99.90
851;DHT22;412;51.400;7.480;2023-04-01T18:01:47;13.00;99.90
851;DHT22;412;51.400;7.480;2023-04-01T18:04:36;12.90;99.90
851;DHT22;412;51.400;7.480;2023-04-01T18:07:30;12.90;99.90
851;DHT22;412;51.400;7.480;2023-04-01T18:10:13;12.90;99.90
851;DHT22;412;51.400;7.480;2023-04-01T18:21:50;13.00;99.90
851;DHT22;412;51.400;7.480;2023-04-01T18:29:49;13.10;99.90
851;DHT22;412;51.400;7.480;2023-04-01T18:32:26;13.10;99.90
851;DHT22;412;51.400;7.480;2023-04-01T18:37:42;13.00;99.90
851;DHT22;412;51.400;7.480;2023-04-01T18:40:12;13.00;99.90
851;DHT22;412;51.400;7.480;2023-04-01T18:43:14;13.10;99.90
851;DHT22;412;51.400;7.480;2023-04-01T18:45:50;13.10;99.90
851;DHT22;412;51.400;7.480;2023-04-01T18:51:26;13.10;99.90
851;DHT22;412;51.400;7.480;2023-04-01T18:54:05;13.10;99.90
851;DHT22;412;51.400;7.480;2023-04-01T18:56:44;13.10;99.90
851;DHT22;412;51.400;7.480;2023-04-01T18:59:26;13.10;99.90
851;DHT22;412;51.400;7.480;2023-04-01T19:04:56;13.10;99.90
851;DHT22;412;51.400;7.480;2023-04-01T19:21:21;13.20;99.90
851;DHT22;412;51.400;7.480;2023-04-01T19:30:03;13.20;99.90
851;DHT22;412;51.400;7.480;2023-04-01T19:48:53;13.30;99.90
851;DHT22;412;51.400;7.480;2023-04-01T19:54:17;13.30;99.90
851;DHT22;412;51.400;7.480;2023-04-01T19:59:35;13.20;99.90
851;DHT22;412;51.400;7.480;2023-04-01T20:04:52;13.30;99.90
851;DHT22;412;51.400;7.480;2023-04-01T20:07:37;13.30;99.90
851;DHT22;412;51.400;7.480;2023-04-01T20:15:41;13.20;99.90
851;DHT22;412;51.400;7.480;2023-04-01T20:18:18;13.20;99.90
851;DHT22;412;51.400;7.480;2023-04-01T20:24:01;13.30;99.90
851;DHT22;412;51.400;7.480;2023-04-01T20:26:35;13.30;99.90
851;DHT22;412;51.400;7.480;2023-04-01T20:43:33;13.30;99.90
851;DHT22;412;51.400;7.480;2023-04-01T20:46:14;13.30;99.90
851;DHT22;412;51.400;7.480;2023-04-01T20:51:36;13.20;99.90
851;DHT22;412;51.400;7.480;2023-04-01T20:54:24;13.30;99.90
851;DHT22;412;51.400;7.480;2023-04-01T20:59:42;13.30;99.90
851;DHT22;412;51.400;7.480;2023-04-01T21:16:39;13.30;99.90
851;DHT22;412;51.400;7.480;2023-04-01T21:22:31;13.30;99.90
851;DHT22;412;51.400;7.480;2023-04-01T21:36:41;13.30;99.90
851;DHT22;412;51.400;7.480;2023-04-01T22:00:42;12.20;99.90
851;DHT22;412;51.400;7.480;2023-04-01T22:03:27;12.10;99.90
851;DHT22;412;51.400;7.480;2023-04-01T22:06:03;12.10;99.90
851;DHT22;412;51.400;7.480;2023-04-01T22:22:28;11.60;99.90
851;DHT22;412;51.400;7.480;2023-04-01T22:30:24;11.20;99.90
851;DHT22;412;51.400;7.480;2023-04-01T22:35:57;11.30;99.90
851;DHT22;412;51.400;7.480;2023-04-01T22:46:20;11.00;99.90
851;DHT22;412;51.400;7.480;2023-04-01T22:51:54;11.00;99.90
851;DHT22;412;51.400;7.480;2023-04-01T22:54:43;11.00;99.90
851;DHT22;412;51.400;7.480;2023-04-01T23:00:05;10.80;99.90
851;DHT22;412;51.400;7.480;2023-04-01T23:05:30;10.80;99.90
851;DHT22;412;51.400;7.480;2023-04-01T23:10:43;10.70;99.90
851;DHT22;412;51.400;7.480;2023-04-01T23:13:18;10.70;99.90
851;DHT22;412;51.400;7.480;2023-04-01T23:15:46;10.70;99.90
851;DHT22;412;51.400;7.480;2023-04-01T23:29:23;10.50;99.90
851;DHT22;412;51.400;7.480;2023-04-01T23:32:01;10.50;99.90
851;DHT22;412;51.400;7.480;2023-04-01T23:34:36;10.50;99.90
851;DHT22;412;51.400;7.480;2023-04-01T23:37:10;10.50;99.90
851;DHT22;412;51.400;7.480;2023-04-01T23:39:39;10.50;99.90
851;DHT22;412;51.400;7.480;2023-04-01T23:42:12;10.30;99.90
851;DHT22;412;51.400;7.480;2023-04-01T23:44:39;10.30;99.90
851;DHT22;412;51.400;7.480;2023-04-01T23:47:06;10.30;99.90
851;DHT22;412;51.400;7.480;2023-04-01T23:49:38;10.30;99.90
851;DHT22;412;51.400;7.480;2023-04-01T23:52:35;10.40;99.90
851;DHT22;412;51.400;7.480;2023-04-01T23:57:34;10.30;99.90
